Time;durP1;ratioP1;P1;durP2;ratioP2;P2;SDS_P1;SDS_P2;PMS_P1;PMS_P2;Temp;Humidity;BMP_temperature;BMP_pressure;BME280_temperature;BME280_humidity;BME280_pressure;Samples;Min_cycle;Max_cycle;Signal;HPM_P1;HPM_P2
2022/01/19 00:00:05;;;;;;;4.33;1.80;;;;;;;8.05;63.99;102311.66;5088308;28;20232;-68
2022/01/19 00:02:33;;;;;;;2.70;1.30;;;;;;;7.72;64.39;102309.13;5083791;28;20230;-68
2022/01/19 00:05:01;;;;;;;2.93;1.63;;;;;;;7.73;64.73;102319.59;5091783;28;20217;-68
2022/01/19 00:07:28;;;;;;;3.00;1.57;;;;;;;7.71;65.21;102316.19;5083016;28;20213;-68
2022/01/19 00:10:03;;;;;;;2.97;1.60;;;;;;;7.81;64.61;102308.59;5089438;28;20224;-68
2022/01/19 00:12:30;;;;;;;6.03;1.90;;;;;;;7.82;65.33;102303.25;5087873;28;20605;-69
2022/01/19 00:14:58;;;;;;;4.53;1.90;;;;;;;7.94;65.54;102302.53;5073698;28;20336;-68
2022/01/19 00:17:26;;;;;;;5.60;1.90;;;;;;;8.10;64.09;102275.22;5075651;28;20242;-66
2022/01/19 00:19:53;;;;;;;3.10;1.73;;;;;;;8.13;63.99;102264.50;5085734;28;20228;-68
2022/01/19 00:22:21;;;;;;;6.47;1.87;;;;;;;8.19;64.65;102250.91;5080794;28;20225;-69
2022/01/19 00:24:49;;;;;;;5.60;2.07;;;;;;;8.00;64.34;102250.31;5079622;28;20675;-68
2022/01/19 00:27:18;;;;;;;3.87;1.60;;;;;;;7.45;65.06;102240.22;5078806;28;20296;-68
2022/01/19 00:29:45;;;;;;;4.67;1.87;;;;;;;7.89;65.14;102238.56;5076558;28;20301;-67
2022/01/19 00:32:13;;;;;;;3.07;1.80;;;;;;;7.70;64.82;102255.53;5083329;28;20216;-69
2022/01/19 00:34:41;;;;;;;3.13;2.03;;;;;;;7.62;65.06;102249.81;5073041;28;20675;-66
2022/01/19 00:37:09;;;;;;;4.07;1.97;;;;;;;7.60;65.12;102255.19;5094332;28;20233;-66
2022/01/19 00:39:36;;;;;;;7.77;2.00;;;;;;;7.62;65.46;102260.38;5077269;28;20287;-67
2022/01/19 00:42:04;;;;;;;7.70;1.90;;;;;;;7.53;65.94;102264.38;5082842;28;20238;-67
2022/01/19 00:44:33;;;;;;;6.67;2.50;;;;;;;7.53;65.82;102272.31;5083432;28;20378;-67
2022/01/19 00:47:01;;;;;;;3.47;1.90;;;;;;;7.49;66.13;102270.75;5075629;28;20209;-68
2022/01/19 00:49:29;;;;;;;3.73;1.97;;;;;;;7.55;65.24;102257.25;5075220;28;20281;-68
2022/01/19 00:51:57;;;;;;;3.50;2.10;;;;;;;7.67;66.11;102268.88;5077853;28;20578;-68
2022/01/19 00:54:24;;;;;;;3.87;1.80;;;;;;;7.68;65.84;102270.59;5079182;28;20209;-68
2022/01/19 00:56:52;;;;;;;7.73;2.20;;;;;;;7.67;66.22;102266.25;5087656;28;20297;-67
2022/01/19 00:59:20;;;;;;;4.33;2.20;;;;;;;7.28;66.54;102256.97;5087039;28;20205;-67
2022/01/19 01:01:49;;;;;;;4.30;2.10;;;;;;;7.34;66.94;102248.72;5074852;28;20703;-68
2022/01/19 01:04:17;;;;;;;5.87;1.97;;;;;;;7.68;66.43;102247.69;5075083;28;20229;-68
2022/01/19 01:06:45;;;;;;;6.00;2.47;;;;;;;7.17;66.87;102251.41;5076175;28;20642;-67
2022/01/19 01:09:12;;;;;;;3.73;1.80;;;;;;;7.23;67.67;102244.94;5086121;28;20639;-67
2022/01/19 01:11:47;;;;;;;2.93;1.77;;;;;;;7.13;67.22;102249.88;5081757;28;20297;-68
2022/01/19 01:18:16;;;;;;;4.57;1.90;;;;;;;6.92;68.19;102243.97;5097783;28;20276;-67
2022/01/19 01:20:02;;;;;;;5.70;2.10;;;;;;;6.97;67.45;102228.75;5099792;28;20519;-67
2022/01/19 01:22:30;;;;;;;3.53;2.20;;;;;;;6.93;68.39;102231.63;5095668;28;20229;-68
2022/01/19 01:24:58;;;;;;;3.83;2.13;;;;;;;7.03;67.63;102214.38;5106779;28;20236;-68
2022/01/19 01:27:26;;;;;;;4.83;2.17;;;;;;;7.20;67.44;102224.88;5098207;27;20222;-67
2022/01/19 01:29:54;;;;;;;5.30;2.20;;;;;;;6.90;68.52;102208.06;5104031;28;20216;-68
2022/01/19 01:32:23;;;;;;;5.73;2.47;;;;;;;7.11;68.30;102205.13;5101292;28;20248;-67
2022/01/19 01:34:51;;;;;;;4.57;2.27;;;;;;;7.15;67.76;102198.72;5108169;27;20220;-68
2022/01/19 01:37:19;;;;;;;6.00;2.80;;;;;;;7.48;67.49;102200.41;5097168;27;20336;-67
2022/01/19 01:39:47;;;;;;;4.40;2.10;;;;;;;7.14;67.56;102204.09;5102482;28;20216;-67
2022/01/19 01:42:17;;;;;;;5.70;2.57;;;;;;;7.36;67.22;102209.03;5100605;28;20672;-67
2022/01/19 01:44:50;;;;;;;6.47;2.50;;;;;;;7.26;66.99;102207.84;5104621;27;20311;-67
2022/01/19 01:47:20;;;;;;;5.47;3.00;;;;;;;6.88;68.36;102225.75;5105949;28;20657;-67
2022/01/19 01:55:21;;;;;;;5.27;3.43;;;;;;;6.77;69.08;102223.69;5100232;27;20261;-69
2022/01/19 01:57:49;;;;;;;8.87;3.40;;;;;;;6.74;69.66;102215.94;5101165;28;20204;-68
2022/01/19 02:00:18;;;;;;;6.37;3.50;;;;;;;6.82;69.10;102202.34;5105791;27;20704;-68
2022/01/19 02:02:47;;;;;;;8.30;4.30;;;;;;;6.37;69.66;102198.56;5098997;27;20684;-69
2022/01/19 02:05:17;;;;;;;8.10;4.47;;;;;;;6.37;69.37;102188.88;5108986;27;20336;-69
2022/01/19 02:08:00;;;;;;;8.00;4.57;;;;;;;6.33;69.51;102181.22;5107063;27;20215;-68
2022/01/19 02:10:36;;;;;;;7.43;4.00;;;;;;;6.43;69.43;102180.63;5123465;27;20299;-68
2022/01/19 02:21:46;;;;;;;9.83;4.27;;;;;;;6.27;68.95;102140.22;5104524;28;20615;-68
2022/01/19 02:24:17;;;;;;;9.60;4.07;;;;;;;6.28;68.59;102139.28;5102638;28;20268;-68
2022/01/19 02:26:57;;;;;;;10.67;4.20;;;;;;;6.33;68.84;102136.44;5107611;28;20325;-68
2022/01/19 02:30:19;;;;;;;8.47;3.97;;;;;;;6.57;68.31;102121.94;5106095;28;20289;-68
2022/01/19 02:40:58;;;;;;;6.20;3.97;;;;;;;6.34;67.38;102114.38;5108364;28;20266;-68
2022/01/19 02:43:28;;;;;;;6.30;3.43;;;;;;;6.00;68.32;102113.50;5103155;28;20314;-67
2022/01/19 02:51:27;;;;;;;6.27;3.10;;;;;;;6.18;68.18;102109.06;5101731;27;20234;-67
2022/01/19 02:53:56;;;;;;;7.53;3.40;;;;;;;5.84;67.97;102095.91;5093834;27;20203;-67
2022/01/19 02:56:27;;;;;;;6.83;3.77;;;;;;;5.87;67.72;102086.09;5110244;28;20207;-67
2022/01/19 02:59:00;;;;;;;7.53;3.53;;;;;;;6.28;66.65;102089.22;5104130;27;20290;-67
2022/01/19 03:09:46;;;;;;;6.50;3.60;;;;;;;6.45;65.81;102053.19;5107132;28;20691;-67
2022/01/19 03:12:15;;;;;;;6.10;3.30;;;;;;;6.41;65.60;102039.38;5105224;27;20221;-68
2022/01/19 03:14:42;;;;;;;7.87;3.67;;;;;;;6.31;65.92;102032.88;5099455;28;20773;-67
2022/01/19 03:17:12;;;;;;;6.57;4.20;;;;;;;6.46;65.05;102028.56;5109361;27;20686;-67
2022/01/19 03:19:41;;;;;;;8.80;3.67;;;;;;;6.55;64.63;102020.16;5098800;28;20216;-67
2022/01/19 03:22:09;;;;;;;5.33;3.10;;;;;;;6.32;64.88;102009.09;5101857;27;20226;-67
2022/01/19 03:24:39;;;;;;;8.00;3.67;;;;;;;6.29;65.13;101997.88;5104847;28;20756;-68
2022/01/19 03:27:08;;;;;;;8.20;4.50;;;;;;;6.25;64.96;101985.78;5091645;28;20266;-68
2022/01/19 03:29:35;;;;;;;6.13;3.50;;;;;;;6.34;65.83;101980.84;5095158;28;20200;-68
2022/01/19 03:32:04;;;;;;;5.97;3.30;;;;;;;6.18;65.50;101973.88;5100091;27;20229;-68
2022/01/19 03:34:32;;;;;;;6.10;3.90;;;;;;;6.34;65.27;101975.59;5102997;27;20208;-68
2022/01/19 03:36:59;;;;;;;7.30;3.67;;;;;;;6.40;65.22;101983.19;5109469;28;20232;-68
2022/01/19 03:39:27;;;;;;;10.10;4.33;;;;;;;6.38;64.83;101969.22;5099022;28;20641;-68
2022/01/19 03:41:55;;;;;;;6.27;3.83;;;;;;;6.32;64.81;101966.09;5106041;27;20211;-68
2022/01/19 03:44:24;;;;;;;9.53;3.80;;;;;;;6.23;64.59;101972.72;5100682;28;20230;-68
2022/01/19 03:46:56;;;;;;;10.03;5.37;;;;;;;5.89;65.18;101957.03;5107949;28;20317;-68
2022/01/19 03:49:26;;;;;;;8.73;4.00;;;;;;;6.22;64.99;101959.63;5109719;28;20651;-68
2022/01/19 03:51:58;;;;;;;5.80;3.90;;;;;;;6.13;64.94;101949.59;5098078;28;20280;-70
2022/01/19 03:54:26;;;;;;;7.43;4.43;;;;;;;6.21;65.39;101942.97;5102086;28;20326;-67
2022/01/19 03:56:54;;;;;;;9.53;4.30;;;;;;;6.10;65.29;101933.94;5095118;27;20309;-69
2022/01/19 03:59:23;;;;;;;8.87;4.30;;;;;;;6.17;64.88;101927.41;5093537;28;20245;-68
2022/01/19 04:01:53;;;;;;;8.20;4.63;;;;;;;5.98;65.36;101920.50;5109651;27;20488;-68
2022/01/19 04:07:26;;;;;;;8.30;4.87;;;;;;;6.29;65.31;101914.41;5096126;28;20207;-68
2022/01/19 04:09:53;;;;;;;10.90;5.23;;;;;;;6.29;65.39;101913.56;5105763;28;20210;-68
2022/01/19 04:12:41;;;;;;;7.17;4.80;;;;;;;6.50;64.50;101898.34;5099525;28;20301;-68
2022/01/19 04:15:11;;;;;;;11.60;4.83;;;;;;;6.31;64.92;101893.25;5097959;28;20292;-69
2022/01/19 04:17:45;;;;;;;6.90;4.57;;;;;;;6.02;66.17;101884.31;5097161;28;20237;-68
2022/01/19 04:20:14;;;;;;;9.47;4.57;;;;;;;6.31;65.42;101899.38;5102882;28;20197;-68
2022/01/19 04:22:41;;;;;;;9.07;4.70;;;;;;;6.02;65.91;101905.41;5106698;28;20691;-68
2022/01/19 04:25:09;;;;;;;9.53;4.80;;;;;;;6.42;65.34;101918.03;5101196;28;20762;-68
2022/01/19 04:27:38;;;;;;;8.70;4.83;;;;;;;6.32;64.98;101914.25;5095777;28;20296;-69
2022/01/19 04:30:10;;;;;;;8.00;4.63;;;;;;;6.53;64.92;101900.78;5092980;28;20210;-68
2022/01/19 04:32:45;;;;;;;9.60;5.10;;;;;;;6.16;65.54;101905.47;5106759;28;20282;-68
2022/01/19 04:35:18;;;;;;;9.13;4.93;;;;;;;6.35;65.49;101907.94;5103463;28;20206;-68
2022/01/19 04:46:48;;;;;;;11.77;4.87;;;;;;;6.13;65.91;101897.75;5100667;28;20301;-68
2022/01/19 04:54:13;;;;;;;10.03;5.00;;;;;;;5.86;66.29;101893.97;5096687;28;20288;-68
2022/01/19 05:01:35;;;;;;;9.20;4.67;;;;;;;5.75;66.61;101896.31;5102312;28;20289;-68
2022/01/19 05:03:31;;;;;;;10.70;4.93;;;;;;;5.82;66.52;101887.16;5096202;28;20286;-68
2022/01/19 05:06:05;;;;;;;9.37;5.00;;;;;;;5.85;66.42;101871.19;5110843;28;20214;-68
2022/01/19 05:08:50;;;;;;;12.40;5.70;;;;;;;5.68;66.66;101872.13;5111835;27;20210;-68
2022/01/19 05:14:04;;;;;;;12.70;5.43;;;;;;;5.91;65.94;101870.88;5097706;27;20297;-68
2022/01/19 05:16:32;;;;;;;11.37;5.30;;;;;;;5.79;65.96;101887.34;5100103;27;20211;-68
2022/01/19 05:19:00;;;;;;;10.00;5.13;;;;;;;5.67;66.03;101884.44;5112418;28;20212;-68
2022/01/19 05:21:29;;;;;;;10.50;5.30;;;;;;;5.19;67.36;101887.84;5106651;28;20225;-68
2022/01/19 05:24:03;;;;;;;9.93;4.90;;;;;;;5.53;67.19;101896.63;5099857;27;20294;-68
2022/01/19 05:26:31;;;;;;;10.20;5.17;;;;;;;5.40;67.45;101892.94;5099413;27;20283;-68
2022/01/19 05:28:59;;;;;;;11.37;5.10;;;;;;;5.41;67.52;101892.00;5098408;27;20641;-68
2022/01/19 05:31:26;;;;;;;10.53;5.03;;;;;;;5.28;67.68;101892.63;5105632;27;20804;-68
2022/01/19 05:33:54;;;;;;;9.70;5.17;;;;;;;5.37;67.15;101896.56;5107957;28;20206;-68
2022/01/19 05:36:22;;;;;;;11.23;5.37;;;;;;;5.36;67.14;101889.63;5106883;27;20292;-68
2022/01/19 05:38:51;;;;;;;13.80;5.80;;;;;;;5.19;67.93;101893.09;5106301;28;20313;-68
2022/01/19 05:41:20;;;;;;;9.33;5.80;;;;;;;5.58;66.94;101877.03;5102816;27;20234;-68
2022/01/19 05:43:48;;;;;;;8.83;5.17;;;;;;;5.64;66.93;101874.06;5112293;28;20290;-68
2022/01/19 05:46:16;;;;;;;16.53;6.43;;;;;;;5.49;66.97;101869.63;5094724;28;20238;-68
2022/01/19 05:48:43;;;;;;;14.00;6.53;;;;;;;5.83;66.18;101867.78;5105886;27;20566;-68
2022/01/19 05:51:12;;;;;;;9.67;5.80;;;;;;;5.60;66.75;101869.91;5102743;28;20215;-68
2022/01/19 05:53:39;;;;;;;11.10;5.77;;;;;;;5.66;66.44;101864.31;5107813;28;20206;-68
2022/01/19 05:56:09;;;;;;;10.13;5.80;;;;;;;5.60;67.03;101861.16;5103486;28;20296;-68
2022/01/19 05:58:36;;;;;;;10.23;5.60;;;;;;;5.77;66.54;101860.25;5104286;28;20312;-68
2022/01/19 06:01:04;;;;;;;11.70;6.43;;;;;;;5.15;68.19;101861.81;5100297;27;20260;-68
2022/01/19 06:03:34;;;;;;;11.50;5.60;;;;;;;5.20;68.32;101858.00;5093265;28;20328;-68
2022/01/19 06:06:02;;;;;;;11.10;5.90;;;;;;;5.19;68.42;101866.81;5102968;27;20209;-68
2022/01/19 06:08:41;;;;;;;10.53;5.20;;;;;;;5.23;68.12;101867.50;5100779;28;20290;-68
2022/01/19 06:11:11;;;;;;;8.27;5.30;;;;;;;4.96;69.19;101859.28;5103312;27;20206;-68
2022/01/19 06:13:39;;;;;;;9.80;6.33;;;;;;;5.27;68.38;101853.28;5102805;27;20226;-68
2022/01/19 06:16:07;;;;;;;10.57;5.67;;;;;;;5.56;67.44;101843.81;5095336;28;20234;-68
2022/01/19 06:18:35;;;;;;;13.77;6.77;;;;;;;5.03;68.01;101841.38;5096158;27;20275;-68
2022/01/19 06:21:03;;;;;;;12.80;6.60;;;;;;;5.21;68.21;101833.41;5096909;28;20697;-68
2022/01/19 06:23:30;;;;;;;12.00;6.80;;;;;;;4.89;69.08;101835.09;5099262;27;20252;-68
2022/01/19 06:25:59;;;;;;;10.47;6.10;;;;;;;5.35;67.76;101835.31;5105071;27;20265;-68
2022/01/19 06:28:28;;;;;;;11.50;6.50;;;;;;;5.06;68.61;101839.47;5101203;27;20683;-68
2022/01/19 06:30:56;;;;;;;14.57;6.63;;;;;;;5.17;68.45;101836.28;5094417;27;20211;-68
2022/01/19 06:33:23;;;;;;;15.57;6.50;;;;;;;5.09;68.40;101830.59;5091176;28;20207;-68
2022/01/19 06:35:52;;;;;;;13.17;6.77;;;;;;;5.09;68.77;101827.94;5103840;27;20301;-68
2022/01/19 06:38:21;;;;;;;13.00;7.63;;;;;;;5.51;67.33;101836.19;5098754;27;20698;-68
2022/01/19 06:40:49;;;;;;;10.03;6.37;;;;;;;5.24;67.96;101829.75;5101566;27;20198;-68
2022/01/19 06:43:17;;;;;;;14.83;7.13;;;;;;;5.27;68.30;101822.56;5093146;27;20301;-68
2022/01/19 06:45:46;;;;;;;17.73;8.30;;;;;;;5.44;67.67;101826.94;5095264;27;20233;-68
2022/01/19 06:48:13;;;;;;;14.93;7.67;;;;;;;4.96;68.61;101821.63;5100092;27;20229;-68
2022/01/19 06:50:41;;;;;;;13.23;8.20;;;;;;;4.79;69.42;101811.97;5095051;28;20198;-68
2022/01/19 06:53:14;;;;;;;13.00;7.20;;;;;;;4.91;69.89;101806.94;5102208;27;20197;-68
2022/01/19 06:55:42;;;;;;;14.57;7.50;;;;;;;4.78;69.62;101808.50;5100930;27;20220;-68
2022/01/19 06:58:10;;;;;;;12.90;7.27;;;;;;;4.56;69.70;101805.25;5094391;27;20327;-69
2022/01/19 07:00:38;;;;;;;14.10;7.13;;;;;;;4.83;70.16;101795.97;5092651;28;20511;-68
2022/01/19 07:03:07;;;;;;;11.83;7.07;;;;;;;4.60;69.64;101793.66;5094874;27;20686;-68
2022/01/19 07:05:35;;;;;;;11.77;6.97;;;;;;;4.13;71.67;101794.25;5093404;27;20233;-68
2022/01/19 07:08:02;;;;;;;12.30;7.43;;;;;;;4.76;70.72;101788.47;5093442;27;20213;-67
2022/01/19 07:10:33;;;;;;;13.10;6.97;;;;;;;4.98;69.34;101793.47;5097635;28;20568;-67
2022/01/19 07:13:01;;;;;;;15.17;7.33;;;;;;;5.14;68.64;101792.59;5104067;27;20256;-68
2022/01/19 07:15:29;;;;;;;12.53;7.20;;;;;;;4.71;69.59;101786.09;5080841;28;20217;-68
2022/01/19 07:17:57;;;;;;;14.10;8.43;;;;;;;4.95;69.34;101793.63;5078451;28;20275;-68
2022/01/19 07:20:26;;;;;;;16.73;7.67;;;;;;;4.92;69.18;101792.03;5097230;28;20229;-68
2022/01/19 07:22:56;;;;;;;15.07;8.40;;;;;;;4.66;69.75;101790.72;5081103;28;20237;-68
2022/01/19 07:25:24;;;;;;;14.63;7.47;;;;;;;4.53;70.57;101798.38;5078405;28;20243;-66
2022/01/19 07:27:51;;;;;;;16.13;7.87;;;;;;;4.95;69.70;101798.88;5085351;28;20300;-67
2022/01/19 07:30:19;;;;;;;14.57;8.03;;;;;;;5.03;68.21;101791.44;5095048;28;20296;-67
2022/01/19 07:32:49;;;;;;;13.93;7.23;;;;;;;5.08;68.76;101792.91;5086924;28;20292;-67
2022/01/19 07:35:17;;;;;;;19.77;9.23;;;;;;;4.55;69.99;101787.81;5085746;28;20881;-67
2022/01/19 07:37:46;;;;;;;16.20;8.27;;;;;;;4.54;70.66;101783.47;5077334;28;20858;-68
2022/01/19 07:40:14;;;;;;;15.27;8.03;;;;;;;4.78;69.63;101783.97;5082121;28;20296;-68
2022/01/19 07:42:42;;;;;;;15.90;7.93;;;;;;;4.86;69.47;101792.31;5073387;28;20301;-67
2022/01/19 07:45:10;;;;;;;16.50;8.30;;;;;;;5.32;68.27;101789.91;5079795;28;20225;-67
2022/01/19 07:47:38;;;;;;;17.57;8.47;;;;;;;5.20;68.31;101788.75;5089896;28;20205;-67
2022/01/19 07:50:07;;;;;;;17.23;8.67;;;;;;;5.18;67.81;101782.75;5081172;28;20219;-68
2022/01/19 07:52:34;;;;;;;18.87;8.87;;;;;;;4.48;70.69;101783.78;5082740;28;20648;-68
2022/01/19 07:55:04;;;;;;;19.83;8.57;;;;;;;4.53;70.50;101787.03;5074942;28;20216;-69
2022/01/19 07:57:32;;;;;;;16.93;8.37;;;;;;;4.73;69.99;101784.25;5084147;28;20218;-68
2022/01/19 07:59:59;;;;;;;15.53;8.10;;;;;;;4.73;70.10;101786.88;5077868;28;20312;-67
2022/01/19 08:02:32;;;;;;;14.50;7.97;;;;;;;4.18;71.89;101790.56;5085167;28;20213;-67
2022/01/19 08:05:02;;;;;;;16.13;8.73;;;;;;;4.11;71.95;101784.75;5086912;28;20666;-67
2022/01/19 08:07:30;;;;;;;18.77;9.53;;;;;;;4.51;71.72;101780.97;5085104;28;20768;-67
2022/01/19 08:09:58;;;;;;;18.83;8.50;;;;;;;4.28;71.66;101776.03;5074172;28;20686;-69
2022/01/19 08:12:27;;;;;;;23.27;9.90;;;;;;;4.16;72.37;101777.50;5080102;28;20739;-69
2022/01/19 08:14:55;;;;;;;17.90;8.87;;;;;;;4.09;72.75;101771.69;5077980;28;20238;-68
2022/01/19 08:17:23;;;;;;;20.60;8.70;;;;;;;3.90;73.47;101770.03;5077030;28;20218;-68
2022/01/19 08:19:50;;;;;;;17.90;8.20;;;;;;;4.11;72.75;101761.97;5077226;28;20293;-68
2022/01/19 08:22:18;;;;;;;18.50;9.10;;;;;;;3.90;73.12;101765.63;5079014;28;20208;-68
2022/01/19 08:24:46;;;;;;;16.67;8.70;;;;;;;3.74;73.98;101767.31;5082567;28;20229;-68
2022/01/19 08:27:14;;;;;;;16.23;8.57;;;;;;;3.92;73.73;101763.78;5082798;28;20221;-69
2022/01/19 08:29:44;;;;;;;19.70;9.13;;;;;;;3.98;73.99;101758.25;5072763;28;20216;-67
2022/01/19 08:32:11;;;;;;;17.47;8.80;;;;;;;4.33;72.89;101758.28;5083257;28;20209;-68
2022/01/19 08:34:58;;;;;;;18.67;8.47;;;;;;;4.11;72.90;101751.47;5084253;28;20205;-68
2022/01/19 08:37:26;;;;;;;19.27;9.97;;;;;;;3.92;73.84;101763.78;5086065;28;20199;-68
2022/01/19 08:39:54;;;;;;;18.87;9.03;;;;;;;4.12;73.00;101761.06;5082248;28;20228;-67
2022/01/19 08:42:22;;;;;;;24.43;10.00;;;;;;;3.85;74.12;101769.41;5079833;28;20214;-68
2022/01/19 08:44:55;;;;;;;17.37;8.90;;;;;;;3.75;74.69;101769.84;5081542;28;20624;-68
2022/01/19 08:47:23;;;;;;;18.00;8.93;;;;;;;3.74;74.99;101760.28;5093070;28;20301;-68
2022/01/19 08:49:53;;;;;;;22.37;9.63;;;;;;;3.72;74.72;101756.88;5079466;28;20280;-68
2022/01/19 08:52:21;;;;;;;19.40;10.67;;;;;;;4.24;73.58;101756.09;5089256;28;20225;-67
2022/01/19 08:54:49;;;;;;;20.47;9.93;;;;;;;4.15;73.12;101747.75;5082761;28;20205;-69
2022/01/19 08:57:18;;;;;;;21.10;9.80;;;;;;;3.81;74.36;101750.34;5076925;28;20259;-68
2022/01/19 08:59:46;;;;;;;18.33;9.90;;;;;;;4.04;74.42;101754.50;5077353;28;20265;-69
2022/01/19 09:02:15;;;;;;;18.30;9.60;;;;;;;4.10;73.92;101752.41;5088230;28;20333;-68
2022/01/19 09:04:43;;;;;;;24.13;10.20;;;;;;;3.83;75.13;101752.88;5078988;28;20297;-68
2022/01/19 09:07:11;;;;;;;23.17;9.70;;;;;;;4.05;74.43;101740.41;5085938;28;20240;-68
2022/01/19 09:09:39;;;;;;;18.00;9.67;;;;;;;4.09;73.93;101747.22;5089309;28;20214;-68
2022/01/19 09:12:07;;;;;;;19.77;10.10;;;;;;;4.30;73.64;101742.69;5087941;28;20266;-68
2022/01/19 09:14:35;;;;;;;21.90;9.50;;;;;;;5.62;69.85;101740.88;5098185;27;20766;-68
2022/01/19 09:17:07;;;;;;;16.87;9.67;;;;;;;6.65;64.76;101739.28;5104641;28;20209;-69
2022/01/19 09:19:39;;;;;;;22.50;9.63;;;;;;;7.53;61.99;101733.78;5103153;27;20210;-69
2022/01/19 09:22:07;;;;;;;19.20;9.50;;;;;;;8.78;58.69;101713.09;5105979;28;20210;-69
2022/01/19 09:24:35;;;;;;;15.80;8.43;;;;;;;9.23;57.09;101719.59;5108950;28;20239;-69
2022/01/19 09:27:04;;;;;;;17.57;10.43;;;;;;;9.67;54.76;101718.19;5106310;28;20688;-69
2022/01/19 09:29:32;;;;;;;18.63;8.90;;;;;;;9.78;54.16;101710.28;5108534;28;20255;-70
2022/01/19 09:32:01;;;;;;;17.30;10.40;;;;;;;9.63;54.24;101706.97;5105548;28;21067;-62
2022/01/19 09:34:29;;;;;;;15.63;8.97;;;;;;;6.99;61.57;101714.34;5101584;28;20203;-62
2022/01/19 09:36:58;;;;;;;16.03;9.37;;;;;;;6.04;65.26;101703.38;5105304;27;20202;-62
2022/01/19 09:39:27;;;;;;;17.27;9.53;;;;;;;5.93;66.42;101700.53;5113437;27;20206;-62
2022/01/19 09:41:56;;;;;;;14.03;9.83;;;;;;;5.35;68.20;101703.78;5099381;28;20253;-62
2022/01/19 09:44:28;;;;;;;14.30;9.20;;;;;;;5.34;68.89;101706.50;5094245;28;20294;-61
2022/01/19 09:46:55;;;;;;;16.83;9.90;;;;;;;5.09;69.88;101717.50;5102674;27;20242;-63
2022/01/19 09:49:24;;;;;;;19.20;9.77;;;;;;;5.29;69.72;101707.59;5106699;28;20208;-63
2022/01/19 09:51:54;;;;;;;21.50;10.63;;;;;;;5.62;69.06;101704.88;5094366;27;20208;-62
2022/01/19 09:54:24;;;;;;;18.60;9.47;;;;;;;6.23;67.52;101706.66;5095290;28;20633;-62
2022/01/19 09:56:53;;;;;;;19.23;10.67;;;;;;;6.81;65.27;101700.50;5106670;27;20707;-62
2022/01/19 09:59:22;;;;;;;16.93;9.70;;;;;;;7.66;62.53;101710.91;5101598;27;20203;-62
2022/01/19 10:01:52;;;;;;;20.13;9.97;;;;;;;6.56;65.74;101697.66;5094058;28;20658;-64
2022/01/19 10:04:23;;;;;;;19.00;9.50;;;;;;;6.24;66.69;101689.91;5093697;28;20213;-63
2022/01/19 10:06:51;;;;;;;17.83;10.50;;;;;;;6.54;66.11;101694.25;5094281;28;20323;-62
2022/01/19 10:09:29;;;;;;;18.23;9.90;;;;;;;5.90;67.97;101692.78;5096796;28;20208;-62
2022/01/19 10:17:40;;;;;;;18.37;10.00;;;;;;;5.61;70.09;101674.25;5097954;27;20239;-63
2022/01/19 10:20:21;;;;;;;20.40;10.77;;;;;;;5.56;69.99;101681.53;5105347;27;20206;-62
2022/01/19 10:22:54;;;;;;;25.30;10.93;;;;;;;5.76;69.80;101676.91;5114254;27;20214;-62
2022/01/19 10:25:23;;;;;;;18.10;10.03;;;;;;;5.43;70.78;101680.53;5093057;28;20272;-62
2022/01/19 10:27:51;;;;;;;19.30;10.50;;;;;;;5.39;70.65;101686.88;5105301;27;20230;-61
2022/01/19 10:30:25;;;;;;;18.37;10.40;;;;;;;6.11;69.05;101691.56;5106070;27;20229;-62
2022/01/19 10:32:56;;;;;;;17.90;9.73;;;;;;;6.05;68.42;101684.03;5100914;28;20556;-63
2022/01/19 10:35:26;;;;;;;19.00;11.00;;;;;;;5.84;69.76;101679.97;5113608;27;20203;-62
2022/01/19 10:38:14;;;;;;;23.17;9.67;;;;;;;5.90;69.72;101675.22;5106099;28;20240;-62
2022/01/19 10:41:03;;;;;;;19.83;10.43;;;;;;;6.18;68.83;101674.44;5097736;28;20215;-62
2022/01/19 10:43:35;;;;;;;21.80;10.93;;;;;;;6.13;68.34;101670.41;5102222;28;20207;-63
2022/01/19 10:46:24;;;;;;;21.43;10.97;;;;;;;5.86;69.82;101664.94;5105060;27;20644;-64
2022/01/19 10:48:59;;;;;;;17.50;9.67;;;;;;;5.77;69.88;101662.81;5103199;28;20217;-63
2022/01/19 10:51:32;;;;;;;21.50;10.00;;;;;;;5.42;71.14;101660.41;5114267;27;20605;-63
2022/01/19 10:54:08;;;;;;;21.03;10.30;;;;;;;5.73;70.79;101650.75;5100611;27;20222;-64
2022/01/19 10:56:38;;;;;;;20.70;10.93;;;;;;;5.33;72.12;101655.69;5104044;28;20644;-63
2022/01/19 10:59:09;;;;;;;25.87;10.80;;;;;;;5.49;71.96;101653.88;5102670;27;20246;-64
2022/01/19 11:01:41;;;;;;;19.47;9.97;;;;;;;6.08;69.58;101646.09;5103309;27;20221;-64
2022/01/19 11:04:21;;;;;;;23.17;9.77;;;;;;;6.04;69.31;101641.03;5096228;28;20205;-61
2022/01/19 11:06:50;;;;;;;18.13;10.10;;;;;;;6.25;68.75;101638.03;5098283;28;20613;-62
2022/01/19 11:09:23;;;;;;;16.80;9.70;;;;;;;6.26;68.88;101645.00;5104198;27;20226;-63
2022/01/19 11:11:53;;;;;;;16.53;9.67;;;;;;;6.22;68.71;101649.63;5116685;27;20217;-63
2022/01/19 11:14:23;;;;;;;17.23;9.63;;;;;;;6.23;68.66;101653.97;5107689;27;20333;-64
2022/01/19 11:16:51;;;;;;;19.20;9.73;;;;;;;6.30;68.27;101642.13;5100782;28;20203;-63
2022/01/19 11:19:20;;;;;;;16.77;10.23;;;;;;;6.40;68.07;101648.53;5107747;27;20554;-62
2022/01/19 11:22:12;;;;;;;17.30;10.60;;;;;;;6.07;69.40;101645.25;5101185;28;20246;-65
2022/01/19 11:24:46;;;;;;;19.53;9.47;;;;;;;6.23;68.69;101637.31;5109570;27;20674;-61
2022/01/19 11:27:17;;;;;;;16.17;9.23;;;;;;;6.32;68.35;101640.25;5107066;27;20229;-62
2022/01/19 11:29:45;;;;;;;22.03;10.57;;;;;;;6.29;68.48;101643.06;5100436;28;20310;-65
2022/01/19 11:32:16;;;;;;;17.67;10.03;;;;;;;6.31;68.44;101646.44;5103735;28;20215;-63
2022/01/19 11:34:47;;;;;;;16.37;9.80;;;;;;;6.44;68.19;101638.63;5103461;28;20671;-63
2022/01/19 11:37:16;;;;;;;18.27;10.53;;;;;;;6.30;68.63;101641.28;5096548;28;20644;-62
2022/01/19 11:40:06;;;;;;;18.63;10.13;;;;;;;6.40;68.24;101632.72;5099555;27;20259;-65
2022/01/19 11:42:35;;;;;;;15.57;9.60;;;;;;;6.32;68.59;101629.72;5097797;28;20217;-63
2022/01/19 11:45:05;;;;;;;22.93;10.93;;;;;;;6.12;69.31;101626.56;5099761;27;20206;-63
2022/01/19 11:47:33;;;;;;;20.37;10.27;;;;;;;6.32;68.64;101629.72;5106472;27;20319;-62
2022/01/19 11:50:05;;;;;;;19.83;9.90;;;;;;;6.37;68.19;101626.78;5112576;27;20302;-62
2022/01/19 11:53:05;;;;;;;19.17;10.27;;;;;;;6.15;68.87;101616.72;5104072;28;20293;-65
2022/01/19 11:55:33;;;;;;;20.10;10.40;;;;;;;6.26;68.24;101603.72;5104080;28;20316;-64
2022/01/19 11:58:20;;;;;;;20.43;10.83;;;;;;;6.21;67.96;101605.78;5102192;27;20209;-63
2022/01/19 12:00:50;;;;;;;18.97;10.57;;;;;;;6.17;68.07;101593.72;5104825;28;20217;-63
2022/01/19 12:03:22;;;;;;;20.30;11.10;;;;;;;6.34;67.92;101585.66;5104303;28;20596;-63
2022/01/19 12:06:10;;;;;;;21.30;11.10;;;;;;;6.27;68.70;101579.06;5099166;28;20216;-61
2022/01/19 12:08:39;;;;;;;21.60;10.67;;;;;;;6.32;68.61;101574.38;5105698;28;20370;-63
2022/01/19 12:11:16;;;;;;;22.83;10.90;;;;;;;6.02;69.53;101569.19;5101867;28;20207;-60
2022/01/19 12:13:59;;;;;;;18.97;10.40;;;;;;;6.23;69.59;101572.31;5101410;28;20327;-62
2022/01/19 12:19:19;;;;;;;20.47;11.67;;;;;;;6.19;69.68;101559.41;5105471;27;20742;-63
2022/01/19 12:21:50;;;;;;;22.43;11.37;;;;;;;6.02;69.49;101565.69;5097299;28;20623;-63
2022/01/19 12:24:34;;;;;;;19.53;10.60;;;;;;;6.16;69.29;101560.44;5095495;28;20229;-62
2022/01/19 12:27:06;;;;;;;19.50;10.30;;;;;;;6.26;68.94;101553.66;5092359;28;20239;-64
2022/01/19 12:29:50;;;;;;;19.47;11.20;;;;;;;6.32;69.02;101544.56;5094593;28;20230;-64
2022/01/19 12:32:38;;;;;;;18.97;11.33;;;;;;;6.08;69.70;101541.63;5096493;28;20662;-63
2022/01/19 12:35:15;;;;;;;21.57;11.37;;;;;;;6.20;69.76;101530.34;5096358;28;20695;-63
2022/01/19 12:37:46;;;;;;;20.53;10.20;;;;;;;6.14;69.11;101536.00;5097628;28;20618;-63
2022/01/19 12:40:37;;;;;;;19.67;10.00;;;;;;;6.18;69.56;101526.09;5100303;28;20214;-62
2022/01/19 12:43:07;;;;;;;22.17;11.67;;;;;;;6.00;69.80;101517.53;5101594;28;20214;-61
2022/01/19 12:45:45;;;;;;;21.00;11.20;;;;;;;6.13;69.85;101518.50;5107886;28;20318;-63
2022/01/19 12:48:14;;;;;;;17.97;9.67;;;;;;;6.34;69.19;101509.25;5104896;28;20250;-62
2022/01/19 12:50:44;;;;;;;18.63;10.33;;;;;;;6.05;70.09;101510.22;5102905;28;20210;-62
2022/01/19 12:53:25;;;;;;;20.40;10.47;;;;;;;5.99;70.99;101500.03;5102080;28;20210;-65